Time;durP1;ratioP1;P1;durP2;ratioP2;P2;SDS_P1;SDS_P2;PMS_P1;PMS_P2;Temp;Humidity;BMP_temperature;BMP_pressure;BME280_temperature;BME280_humidity;BME280_pressure;Samples;Min_cycle;Max_cycle;Signal;HPM_P1;HPM_P2
2022/02/10 00:05:40;;;;;;;16.70;2.92;;;;;;;6.58;74.33;101401.70;1750639;81;21006;-82
2022/02/10 00:13:29;;;;;;;11.93;2.62;;;;;;;6.52;74.36;101416.66;1750534;80;21727;-82
2022/02/10 00:17:58;;;;;;;9.95;2.85;;;;;;;6.60;74.61;101418.36;1750678;81;21210;-82
2022/02/10 00:20:22;;;;;;;8.03;2.83;;;;;;;6.65;74.73;101423.44;1747978;81;21417;-83
2022/02/10 00:25:55;;;;;;;14.07;3.25;;;;;;;6.74;74.77;101436.10;1750638;81;20974;-81
2022/02/10 00:36:03;;;;;;;8.18;2.85;;;;;;;6.86;74.54;101438.02;1750542;82;21942;-83
2022/02/10 00:38:30;;;;;;;11.33;3.20;;;;;;;6.88;74.42;101438.10;1750015;81;20974;-83
2022/02/10 00:40:54;;;;;;;12.90;2.72;;;;;;;6.88;74.35;101440.72;1775128;80;20955;-83
2022/02/10 00:43:24;;;;;;;13.58;3.55;;;;;;;6.86;74.24;101431.90;1787503;80;21152;-83
2022/02/10 00:45:49;;;;;;;16.32;3.80;;;;;;;6.84;74.17;101438.36;1786755;79;20975;-83
2022/02/10 00:48:16;;;;;;;13.93;3.33;;;;;;;6.83;74.08;101431.73;1787562;79;21182;-83
2022/02/10 00:50:45;;;;;;;15.55;3.10;;;;;;;6.83;74.04;101433.92;1787367;80;20963;-83
2022/02/10 00:53:17;;;;;;;13.08;3.30;;;;;;;6.84;74.00;101445.31;1787475;80;20978;-83
2022/02/10 00:55:43;;;;;;;10.88;2.58;;;;;;;6.84;74.03;101446.63;1756841;80;21252;-84
2022/02/10 00:58:12;;;;;;;12.63;2.58;;;;;;;6.85;74.02;101445.40;1787558;80;20990;-83
2022/02/10 01:12:11;;;;;;;9.58;2.72;;;;;;;6.84;73.93;101445.31;1760311;80;21504;-84
2022/02/10 01:30:25;;;;;;;11.68;2.83;;;;;;;6.73;73.98;101431.25;1734121;81;21009;-83
2022/02/10 01:32:55;;;;;;;13.45;3.08;;;;;;;6.69;73.94;101426.69;1734356;81;21022;-83
2022/02/10 01:35:23;;;;;;;17.90;3.12;;;;;;;6.66;73.99;101427.83;1729659;82;21006;-83
2022/02/10 01:37:52;;;;;;;13.93;2.60;;;;;;;6.66;74.01;101429.55;1737471;82;21449;-84
2022/02/10 01:40:27;;;;;;;12.03;2.55;;;;;;;6.66;74.03;101438.30;1730835;81;22082;-84
2022/02/10 02:03:19;;;;;;;11.22;2.92;;;;;;;6.38;74.23;101444.72;1684324;82;21084;-83
2022/02/10 02:04:34;;;;;;;10.25;3.05;;;;;;;6.23;74.20;101438.27;1732325;82;21002;-83
2022/02/10 02:07:01;;;;;;;16.05;3.00;;;;;;;6.14;74.22;101432.54;1737864;82;21729;-83
2022/02/10 02:09:28;;;;;;;13.13;2.98;;;;;;;6.09;74.31;101443.56;1732101;81;21125;-83
2022/02/10 02:11:55;;;;;;;9.68;2.47;;;;;;;6.01;74.30;101434.89;1735608;81;21467;-83
2022/02/10 02:14:24;;;;;;;10.70;2.35;;;;;;;5.93;74.26;101445.31;1733868;82;21019;-83
2022/02/10 02:17:00;;;;;;;13.65;2.80;;;;;;;5.89;74.45;101452.46;1698874;82;21031;-82
2022/02/10 02:19:27;;;;;;;11.53;2.90;;;;;;;5.89;74.65;101457.69;1732599;81;21738;-82
2022/02/10 02:22:05;;;;;;;16.57;3.70;;;;;;;5.90;74.65;101460.81;1740516;81;21023;-81
2022/02/10 02:24:32;;;;;;;17.57;3.17;;;;;;;5.89;74.56;101462.02;1729230;82;20987;-81
2022/02/10 02:27:02;;;;;;;15.88;3.12;;;;;;;5.91;74.47;101449.55;1740864;81;21049;-82
2022/02/10 02:29:41;;;;;;;9.40;2.62;;;;;;;5.95;74.34;101461.05;1744451;80;21502;-82
2022/02/10 02:32:08;;;;;;;13.93;2.95;;;;;;;5.95;74.14;101459.73;1753935;80;21796;-82
2022/02/10 03:06:31;;;;;;;13.58;3.10;;;;;;;5.84;73.63;101445.70;1709633;82;21034;-80
2022/02/10 03:08:56;;;;;;;14.23;2.80;;;;;;;5.82;73.68;101455.16;1744006;82;21046;-82
2022/02/10 03:11:20;;;;;;;15.00;2.80;;;;;;;5.78;73.63;101457.50;1744665;82;21729;-82
2022/02/10 03:14:05;;;;;;;16.20;3.55;;;;;;;5.72;73.68;101451.95;1745041;81;21448;-81
2022/02/10 03:19:37;;;;;;;19.65;3.05;;;;;;;5.76;74.07;101449.98;1745016;82;21441;-83
2022/02/10 04:00:34;;;;;;;18.05;2.72;;;;;;;4.98;74.29;101434.28;1761794;80;21030;-82
2022/02/10 04:13:43;;;;;;;14.38;2.40;;;;;;;4.71;74.72;101415.31;1752975;80;21599;-82
2022/02/10 04:16:19;;;;;;;12.88;3.12;;;;;;;4.71;74.94;101419.23;1763062;79;21455;-83
2022/02/10 04:37:46;;;;;;;6.30;1.85;;;;;;;4.69;75.21;101419.52;1761612;80;20999;-83
2022/02/10 05:01:16;;;;;;;13.03;2.70;;;;;;;4.46;75.47;101412.52;1757388;80;21005;-84
2022/02/10 05:04:16;;;;;;;13.05;2.33;;;;;;;4.45;75.51;101413.77;1752565;80;21621;-83
2022/02/10 05:16:51;;;;;;;11.95;2.47;;;;;;;4.41;75.59;101400.02;1764889;80;21922;-84
2022/02/10 05:19:20;;;;;;;9.65;2.27;;;;;;;4.39;75.60;101414.67;1735025;80;21242;-84
2022/02/10 05:33:03;;;;;;;16.30;3.12;;;;;;;4.21;75.91;101407.54;1722513;80;21519;-82
2022/02/10 05:34:39;;;;;;;11.38;2.75;;;;;;;4.17;75.92;101409.47;1716383;80;21025;-83
2022/02/10 05:37:01;;;;;;;12.15;3.12;;;;;;;4.13;75.97;101399.67;1736337;80;21956;-82
2022/02/10 05:39:30;;;;;;;15.50;2.92;;;;;;;4.09;76.02;101401.56;1746615;80;21032;-81
2022/02/10 05:42:29;;;;;;;14.33;3.27;;;;;;;4.04;76.10;101397.80;1745824;80;20993;-81
2022/02/10 05:47:37;;;;;;;11.10;3.40;;;;;;;3.95;76.22;101392.91;1745660;80;20987;-81
2022/02/10 06:37:56;;;;;;;13.55;3.00;;;;;;;3.70;76.69;101408.30;1769654;80;22426;-84
2022/02/10 06:46:12;;;;;;;17.80;3.25;;;;;;;4.08;77.48;101382.44;1769093;80;21695;-84
2022/02/10 06:51:56;;;;;;;17.67;4.00;;;;;;;4.18;77.36;101377.78;1753682;80;20997;-84
2022/02/10 06:57:19;;;;;;;13.93;4.00;;;;;;;4.23;77.24;101380.28;1765132;79;21762;-83
2022/02/10 07:07:36;;;;;;;18.00;6.55;;;;;;;4.37;77.19;101381.09;1768122;80;20989;-83
2022/02/10 07:53:32;;;;;;;16.37;5.92;;;;;;;5.13;76.58;101349.47;1649795;86;21002;-83
2022/02/10 07:56:10;;;;;;;15.25;4.67;;;;;;;5.17;76.58;101360.98;1647274;86;21061;-83
2022/02/10 08:54:17;;;;;;;14.40;5.33;;;;;;;6.57;75.80;101335.41;1708178;81;21381;-84
2022/02/10 08:58:58;;;;;;;16.48;7.17;;;;;;;6.81;75.65;101316.13;1717281;81;22523;-84
2022/02/10 09:12:02;;;;;;;22.13;11.88;;;;;;;7.36;74.99;101310.44;1682511;83;21743;-84
2022/02/10 09:25:50;;;;;;;42.23;22.77;;;;;;;7.61;74.10;101318.13;1686727;82;21959;-83
2022/02/10 09:54:57;;;;;;;10.70;3.90;;;;;;;8.25;71.58;101326.66;1743820;81;21440;-83
2022/02/10 10:01:51;;;;;;;9.98;3.40;;;;;;;8.18;71.61;101314.99;1723093;82;21011;-83
2022/02/10 10:04:20;;;;;;;11.73;3.90;;;;;;;8.25;71.65;101310.50;1737693;81;21733;-83
2022/02/10 10:06:52;;;;;;;9.68;3.20;;;;;;;8.30;71.52;101300.23;1716819;81;21523;-83
2022/02/10 10:09:25;;;;;;;10.82;3.42;;;;;;;8.30;71.37;101295.87;1752844;81;20989;-83
2022/02/10 10:12:10;;;;;;;10.15;3.62;;;;;;;8.35;71.34;101295.66;1724403;81;21128;-83
2022/02/10 10:14:34;;;;;;;10.50;2.92;;;;;;;8.45;71.32;101288.22;1682135;83;21008;-84
2022/02/10 10:23:02;;;;;;;8.50;3.58;;;;;;;8.74;70.84;101292.03;1761216;81;21072;-84
2022/02/10 10:50:51;;;;;;;14.03;3.20;;;;;;;8.79;69.72;101255.06;1690901;84;21115;-84
2022/02/10 10:58:37;;;;;;;8.83;3.20;;;;;;;9.07;69.54;101242.61;1755753;80;22555;-83
2022/02/10 11:42:11;;;;;;;16.20;8.60;;;;;;;9.11;68.50;101199.87;1759478;80;20958;-84
2022/02/10 11:48:15;;;;;;;12.98;5.42;;;;;;;9.18;68.36;101193.53;1739777;80;20974;-83
2022/02/10 12:34:30;;;;;;;8.98;3.40;;;;;;;10.23;67.15;101128.02;1773613;80;21038;-83
2022/02/10 13:02:43;;;;;;;8.38;4.05;;;;;;;10.42;65.76;101116.80;1770560;80;20959;-83
2022/02/10 13:03:08;;;;;;;13.65;4.58;;;;;;;10.24;65.55;101110.05;1725357;80;21712;-84
2022/02/10 13:29:14;;;;;;;9.10;4.20;;;;;;;9.31;67.17;101053.95;1742930;81;21466;-84
2022/02/10 14:18:23;;;;;;;7.80;3.72;;;;;;;8.21;68.96;101038.47;1743823;81;21441;-83
2022/02/10 14:25:41;;;;;;;6.80;2.80;;;;;;;8.04;68.99;101038.23;1700958;83;21741;-83
2022/02/10 14:28:08;;;;;;;7.85;3.15;;;;;;;7.99;69.04;101035.41;1687664;83;21033;-84
2022/02/10 14:30:34;;;;;;;8.60;3.08;;;;;;;7.90;69.09;101033.34;1706412;83;20984;-84
2022/02/10 14:33:01;;;;;;;9.40;3.72;;;;;;;7.86;69.14;101044.93;1699371;83;21000;-84
2022/02/10 14:35:45;;;;;;;8.08;3.20;;;;;;;7.78;69.26;101038.95;1646854;85;21519;-84
2022/02/10 14:43:25;;;;;;;8.35;3.47;;;;;;;7.59;69.31;101041.66;1663254;83;21039;-84
2022/02/10 15:51:23;;;;;;;18.30;12.53;;;;;;;6.48;72.59;101039.86;1737220;82;21002;-83
2022/02/10 15:54:06;;;;;;;16.67;9.85;;;;;;;6.46;72.61;101040.17;1746254;81;20986;-84
2022/02/10 16:18:08;;;;;;;21.73;15.75;;;;;;;5.99;73.33;101044.55;1744361;80;21022;-83
2022/02/10 16:20:33;;;;;;;14.10;9.70;;;;;;;5.97;73.35;101044.89;1743084;80;20972;-83
2022/02/10 16:23:02;;;;;;;11.75;10.00;;;;;;;5.94;73.43;101043.39;1749829;81;21035;-82
2022/02/10 16:25:35;;;;;;;12.03;7.58;;;;;;;5.91;73.46;101044.57;1738756;82;22533;-83
2022/02/10 16:28:22;;;;;;;13.40;9.80;;;;;;;5.92;73.57;101048.07;1727362;82;21003;-82
2022/02/10 16:30:44;;;;;;;12.43;9.45;;;;;;;5.91;73.59;101041.04;1668272;81;21078;-83
2022/02/10 16:33:23;;;;;;;11.55;6.85;;;;;;;5.88;73.63;101044.83;1742102;81;21073;-82
2022/02/10 16:35:55;;;;;;;11.30;5.53;;;;;;;5.87;73.67;101049.55;1728939;82;21019;-83
2022/02/10 16:38:37;;;;;;;18.42;10.25;;;;;;;5.83;73.68;101047.20;1743764;81;21007;-83
2022/02/10 16:43:47;;;;;;;34.45;26.73;;;;;;;5.76;73.77;101042.48;1714021;81;21017;-84
2022/02/10 16:46:22;;;;;;;50.15;42.98;;;;;;;5.74;73.83;101042.41;1743522;81;20997;-84
2022/02/10 16:48:48;;;;;;;33.08;27.05;;;;;;;5.73;73.93;101044.55;1769225;79;21030;-84
2022/02/10 16:51:26;;;;;;;21.82;16.42;;;;;;;5.75;74.00;101045.94;1795215;78;21479;-81
2022/02/10 16:54:16;;;;;;;27.52;21.27;;;;;;;5.73;74.03;101048.47;1773647;79;20947;-82
2022/02/10 16:59:37;;;;;;;20.23;15.48;;;;;;;5.70;74.04;101036.98;1737850;81;21007;-83
2022/02/10 17:19:26;;;;;;;13.83;7.85;;;;;;;5.57;74.41;101051.14;1769119;80;22656;-84
2022/02/10 17:27:32;;;;;;;13.43;6.40;;;;;;;5.49;74.54;101061.20;1716267;81;21029;-85
2022/02/10 17:46:09;;;;;;;10.00;6.00;;;;;;;5.18;75.00;101051.82;1739291;82;21748;-86
2022/02/10 17:51:41;;;;;;;11.43;5.78;;;;;;;5.16;74.98;101052.16;1739174;82;20983;-86
2022/02/10 17:54:02;;;;;;;16.45;7.92;;;;;;;5.10;75.00;101053.12;1740538;81;20944;-86
2022/02/10 17:56:28;;;;;;;16.05;8.05;;;;;;;5.07;75.07;101052.98;1770199;81;20987;-87
2022/02/10 17:58:55;;;;;;;19.50;8.00;;;;;;;5.04;74.95;101055.41;1770166;81;22516;-86
2022/02/10 18:01:24;;;;;;;17.42;8.03;;;;;;;5.01;75.10;101059.16;1770232;81;20967;-87
2022/02/10 18:03:52;;;;;;;16.87;8.10;;;;;;;4.99;75.17;101064.32;1769756;81;20952;-87
2022/02/10 18:06:25;;;;;;;15.63;8.03;;;;;;;4.99;75.23;101067.31;1770163;81;20987;-87
2022/02/10 18:16:55;;;;;;;9.53;6.95;;;;;;;5.02;75.46;101052.72;1748548;81;20967;-87
2022/02/10 18:19:29;;;;;;;15.25;7.87;;;;;;;5.05;75.38;101059.83;1768992;80;21074;-87
2022/02/10 18:22:36;;;;;;;14.98;8.48;;;;;;;5.02;75.33;101055.33;1768512;80;20989;-87
2022/02/10 18:25:00;;;;;;;14.25;8.68;;;;;;;5.03;75.33;101053.61;1757912;80;21047;-87
2022/02/10 18:27:38;;;;;;;13.90;9.08;;;;;;;5.02;75.32;101046.20;1765583;80;21076;-86
2022/02/10 18:30:15;;;;;;;11.93;7.70;;;;;;;5.00;75.37;101049.56;1743248;81;21022;-87
2022/02/10 19:07:52;;;;;;;8.25;6.33;;;;;;;5.22;75.53;101077.25;1715513;81;20987;-80
2022/02/10 19:10:11;;;;;;;8.78;6.55;;;;;;;5.23;75.57;101076.41;1695277;83;21050;-81
2022/02/10 19:12:47;;;;;;;9.08;6.47;;;;;;;5.23;75.68;101079.44;1742753;80;21410;-82
2022/02/10 19:15:18;;;;;;;7.22;4.50;;;;;;;5.24;75.74;101083.44;1722711;83;21003;-83
2022/02/10 19:17:42;;;;;;;8.93;5.03;;;;;;;5.24;75.64;101089.08;1744848;82;21776;-81
2022/02/10 19:20:09;;;;;;;12.15;4.67;;;;;;;5.24;75.68;101091.27;1724085;83;20979;-84
2022/02/10 19:22:37;;;;;;;8.23;4.70;;;;;;;5.25;75.76;101089.55;1774876;80;20994;-83
2022/02/10 19:25:08;;;;;;;9.15;4.65;;;;;;;5.28;75.83;101093.64;1770618;80;21436;-87
2022/02/10 19:27:41;;;;;;;9.83;4.30;;;;;;;5.30;75.84;101095.91;1750890;81;20966;-86
2022/02/10 19:30:08;;;;;;;7.53;4.05;;;;;;;5.29;75.71;101096.72;1721407;82;21947;-84
2022/02/10 19:32:37;;;;;;;8.03;4.35;;;;;;;5.29;75.68;101099.33;1724178;81;21001;-85
2022/02/10 19:35:04;;;;;;;6.45;4.20;;;;;;;5.28;75.67;101095.36;1739838;80;21579;-81
2022/02/10 19:37:31;;;;;;;9.25;5.05;;;;;;;5.26;75.63;101096.16;1726265;82;20993;-83
2022/02/10 19:40:03;;;;;;;11.18;5.17;;;;;;;5.26;75.64;101096.16;1722310;82;21097;-83
2022/02/10 19:42:33;;;;;;;12.80;5.45;;;;;;;5.22;75.50;101092.02;1735185;81;21732;-84
2022/02/10 19:45:00;;;;;;;11.12;5.58;;;;;;;5.16;75.45;101097.82;1724738;82;21488;-83
2022/02/10 19:47:31;;;;;;;8.48;5.33;;;;;;;5.09;75.50;101093.47;1724458;82;21073;-83
2022/02/10 19:49:58;;;;;;;10.88;5.87;;;;;;;5.05;75.53;101095.06;1719175;82;21161;-83
2022/02/10 19:52:26;;;;;;;11.80;6.15;;;;;;;4.98;75.44;101087.72;1714249;82;21101;-83
2022/02/10 19:54:56;;;;;;;14.00;7.17;;;;;;;4.91;75.36;101090.81;1714304;82;21721;-83
2022/02/10 19:57:23;;;;;;;15.10;7.03;;;;;;;4.81;75.44;101094.64;1713731;82;21007;-83
2022/02/10 19:59:50;;;;;;;16.97;8.75;;;;;;;4.72;75.50;101095.03;1716367;82;21948;-84
2022/02/10 20:02:21;;;;;;;20.55;8.93;;;;;;;4.65;75.55;101105.55;1712893;83;21039;-84
2022/02/10 20:04:46;;;;;;;24.80;10.60;;;;;;;4.58;75.61;101105.11;1713157;82;20991;-84
2022/02/10 20:07:16;;;;;;;26.23;9.73;;;;;;;4.52;75.74;101107.39;1713060;82;21781;-86
2022/02/10 20:09:41;;;;;;;18.85;8.93;;;;;;;4.46;75.81;101104.92;1712724;82;21509;-85
2022/02/10 20:12:08;;;;;;;17.52;5.50;;;;;;;4.39;75.84;101104.13;1712894;82;21011;-83
2022/02/10 20:14:34;;;;;;;13.55;5.80;;;;;;;4.34;75.93;101105.56;1712753;83;20983;-83
2022/02/10 20:17:01;;;;;;;9.73;5.08;;;;;;;4.30;75.99;101108.81;1712888;83;21038;-84
2022/02/10 20:19:28;;;;;;;9.80;5.17;;;;;;;4.24;76.04;101112.36;1712963;83;21724;-83
2022/02/10 20:21:55;;;;;;;8.45;4.42;;;;;;;4.17;76.02;101110.25;1703912;81;21007;-84
2022/02/10 20:24:22;;;;;;;9.50;4.30;;;;;;;4.11;76.11;101109.49;1713769;81;20988;-84
2022/02/10 20:26:51;;;;;;;8.78;3.98;;;;;;;4.05;76.18;101109.13;1712018;83;21043;-85
2022/02/10 20:29:18;;;;;;;9.35;4.08;;;;;;;4.00;76.27;101110.59;1708822;83;21000;-84
2022/02/10 20:31:46;;;;;;;8.20;3.98;;;;;;;3.94;76.30;101113.74;1708907;83;22495;-84
2022/02/10 20:34:15;;;;;;;10.95;4.65;;;;;;;3.91;76.41;101111.36;1708972;82;21441;-84
2022/02/10 20:36:42;;;;;;;10.58;4.15;;;;;;;3.88;76.47;101117.27;1711084;83;21032;-83
2022/02/10 20:39:08;;;;;;;10.93;4.10;;;;;;;3.84;76.49;101110.09;1711023;83;21486;-83
2022/02/10 20:41:36;;;;;;;9.68;4.22;;;;;;;3.77;76.46;101111.44;1689068;83;21023;-84
2022/02/10 20:44:04;;;;;;;9.18;3.92;;;;;;;3.71;76.49;101114.99;1711343;83;22573;-84
2022/02/10 20:46:32;;;;;;;10.85;4.62;;;;;;;3.64;76.54;101113.75;1711031;83;21473;-84
2022/02/10 20:49:02;;;;;;;9.40;4.35;;;;;;;3.61;76.56;101120.48;1711318;83;21056;-84
2022/02/10 20:51:29;;;;;;;10.20;4.08;;;;;;;3.55;76.63;101113.21;1711013;83;21027;-84
2022/02/10 20:53:56;;;;;;;11.25;4.53;;;;;;;3.49;76.71;101113.75;1711169;83;20991;-85
2022/02/10 20:56:22;;;;;;;11.97;4.72;;;;;;;3.44;76.74;101125.99;1711246;83;21901;-85
2022/02/10 20:58:55;;;;;;;13.48;4.40;;;;;;;3.40;76.79;101121.41;1711223;83;21458;-85
2022/02/10 21:01:19;;;;;;;10.93;4.35;;;;;;;3.37;76.88;101123.82;1710719;83;21007;-84
2022/02/10 21:03:46;;;;;;;10.35;4.60;;;;;;;3.33;76.93;101116.23;1711127;83;21098;-84
2022/02/10 21:06:40;;;;;;;15.15;4.28;;;;;;;3.29;76.95;101116.45;1711178;83;21047;-84
2022/02/10 21:08:56;;;;;;;12.98;5.35;;;;;;;3.28;77.02;101118.95;1707617;82;21737;-84
2022/02/10 21:11:16;;;;;;;14.03;5.30;;;;;;;3.25;77.10;101114.48;1709121;83;21007;-84
2022/02/10 21:13:43;;;;;;;13.68;5.22;;;;;;;3.25;77.21;101115.78;1711105;83;21128;-84
2022/02/10 21:16:12;;;;;;;14.00;5.35;;;;;;;3.24;77.26;101110.06;1711041;83;21003;-84
2022/02/10 21:18:40;;;;;;;66.70;22.98;;;;;;;3.24;77.27;101116.98;1711071;83;21027;-84
2022/02/10 21:21:12;;;;;;;57.83;22.25;;;;;;;3.22;77.28;101102.57;1711131;83;21159;-84
2022/02/10 21:23:47;;;;;;;85.60;32.30;;;;;;;3.21;77.30;101107.67;1709923;83;21000;-83
2022/02/10 21:26:05;;;;;;;83.37;32.33;;;;;;;3.18;77.28;101104.50;1687902;83;21015;-83
2022/02/10 21:28:38;;;;;;;51.05;22.30;;;;;;;3.15;77.34;101098.22;1710846;83;21003;-83
2022/02/10 21:31:07;;;;;;;35.75;16.02;;;;;;;3.13;77.38;101105.92;1681070;82;21087;-83
2022/02/10 21:38:38;;;;;;;55.80;25.05;;;;;;;3.07;77.50;101103.84;1770328;79;20987;-83
2022/02/10 22:00:03;;;;;;;42.55;20.10;;;;;;;3.02;78.29;101108.27;1764545;81;21838;-84
2022/02/10 22:10:19;;;;;;;26.87;14.10;;;;;;;3.12;78.19;101101.54;1744300;81;20981;-85
2022/02/10 22:20:20;;;;;;;31.82;16.40;;;;;;;3.15;77.96;101108.62;1764311;81;20985;-85
2022/02/10 22:23:13;;;;;;;26.37;10.85;;;;;;;3.09;77.90;101114.34;1764013;80;20981;-84
2022/02/10 22:25:14;;;;;;;26.17;10.40;;;;;;;3.01;77.84;101111.69;1749807;81;21856;-86
2022/02/10 22:27:45;;;;;;;20.50;8.08;;;;;;;2.95;77.83;101113.89;1764469;81;21554;-86
2022/02/10 22:30:20;;;;;;;14.83;6.50;;;;;;;2.88;77.93;101121.33;1719040;83;21096;-86
2022/02/10 22:35:10;;;;;;;17.62;5.95;;;;;;;2.81;78.18;101107.45;1645065;82;21484;-86
2022/02/10 22:37:37;;;;;;;14.93;5.50;;;;;;;2.76;78.15;101107.59;1716800;83;21821;-86
2022/02/10 22:40:11;;;;;;;14.95;6.28;;;;;;;2.72;78.20;101102.97;1716679;83;20960;-86
2022/02/10 22:42:33;;;;;;;14.90;5.87;;;;;;;2.68;78.32;101107.11;1716070;82;21461;-86
2022/02/10 22:45:00;;;;;;;12.90;5.80;;;;;;;2.65;78.29;101105.61;1716990;83;21007;-87
2022/02/10 22:47:26;;;;;;;15.38;5.75;;;;;;;2.62;78.41;101109.30;1716875;83;21124;-86
2022/02/10 22:49:53;;;;;;;16.27;4.67;;;;;;;2.59;78.43;101103.94;1717024;83;21742;-86
2022/02/10 22:52:20;;;;;;;11.30;5.60;;;;;;;2.56;78.55;101106.33;1716783;82;21533;-86
2022/02/10 22:54:46;;;;;;;15.35;5.70;;;;;;;2.56;78.59;101106.74;1717007;83;20991;-86
2022/02/10 22:57:13;;;;;;;15.03;5.42;;;;;;;2.55;78.63;101116.22;1716863;83;21579;-86
2022/02/10 22:59:40;;;;;;;15.43;5.45;;;;;;;2.55;78.78;101121.41;1716923;83;21015;-86
2022/02/10 23:02:06;;;;;;;15.05;5.30;;;;;;;2.60;78.90;101125.20;1717054;83;22889;-86
2022/02/10 23:04:33;;;;;;;17.00;6.37;;;;;;;2.67;79.07;101129.10;1716804;82;21003;-86
2022/02/10 23:07:06;;;;;;;17.30;6.40;;;;;;;2.78;79.20;101131.97;1716943;82;21003;-86
2022/02/10 23:09:30;;;;;;;16.75;6.40;;;;;;;2.88;79.17;101123.92;1716076;83;21003;-86
2022/02/10 23:11:57;;;;;;;15.10;5.42;;;;;;;2.99;79.18;101119.80;1717016;82;21486;-86
2022/02/10 23:14:25;;;;;;;13.13;5.00;;;;;;;3.10;79.19;101123.55;1716845;82;22595;-86
2022/02/10 23:16:53;;;;;;;14.35;4.47;;;;;;;3.23;79.06;101128.17;1716861;82;21055;-85
2022/02/10 23:19:22;;;;;;;12.13;3.90;;;;;;;3.31;79.02;101121.34;1716789;83;21011;-85
2022/02/10 23:21:48;;;;;;;12.65;5.12;;;;;;;3.42;78.87;101130.21;1716993;83;21540;-86
2022/02/10 23:24:15;;;;;;;12.28;4.90;;;;;;;3.47;78.66;101129.67;1716791;82;21004;-87
2022/02/10 23:26:42;;;;;;;12.37;4.28;;;;;;;3.54;78.68;101127.43;1716798;82;21736;-86
2022/02/10 23:29:08;;;;;;;14.95;3.72;;;;;;;3.65;78.67;101132.86;1716801;83;21034;-86
2022/02/10 23:31:36;;;;;;;13.90;3.60;;;;;;;3.74;78.57;101135.13;1716793;83;21050;-87
2022/02/10 23:34:04;;;;;;;11.28;3.67;;;;;;;3.81;78.38;101132.97;1716755;82;21011;-86
2022/02/10 23:36:51;;;;;;;14.23;3.80;;;;;;;3.85;78.14;101134.94;1694737;83;21063;-87
2022/02/10 23:39:32;;;;;;;12.37;3.22;;;;;;;3.87;77.89;101137.22;1716772;83;21823;-87
2022/02/10 23:42:12;;;;;;;11.35;3.45;;;;;;;3.87;77.74;101134.61;1716530;83;21334;-86
2022/02/10 23:44:39;;;;;;;12.63;3.70;;;;;;;3.88;77.76;101141.59;1716793;81;21007;-86
2022/02/10 23:47:05;;;;;;;17.05;3.83;;;;;;;3.93;77.66;101148.39;1716724;82;21445;-86
2022/02/10 23:49:34;;;;;;;10.80;3.10;;;;;;;3.99;77.56;101149.16;1716765;82;21018;-86
2022/02/10 23:52:03;;;;;;;11.60;3.17;;;;;;;4.04;77.47;101147.72;1716741;83;21682;-86
2022/02/10 23:54:33;;;;;;;10.78;3.10;;;;;;;4.08;77.34;101151.87;1716644;83;20952;-87
2022/02/10 23:57:23;;;;;;;9.03;3.10;;;;;;;4.12;77.13;101152.06;1716818;82;20995;-87
